Time;durP1;ratioP1;P1;durP2;ratioP2;P2;SDS_P1;SDS_P2;PMS_P1;PMS_P2;Temp;Humidity;BMP_temperature;BMP_pressure;BME280_temperature;BME280_humidity;BME280_pressure;Samples;Min_cycle;Max_cycle;Signal;HPM_P1;HPM_P2
2023/01/30 00:02:08;;;;;;;12.57;8.95;;;;;;;;;;4993433;28;20022;-71
2023/01/30 00:04:34;;;;;;;12.07;7.40;;;;;;;;;;4992866;28;20480;-71
2023/01/30 00:06:59;;;;;;;13.98;8.52;;;;;;;;;;4992966;28;20034;-71
2023/01/30 00:09:25;;;;;;;13.13;8.00;;;;;;;;;;4992887;28;20026;-72
2023/01/30 00:11:51;;;;;;;11.55;7.30;;;;;;;;;;4992459;28;20045;-71
2023/01/30 00:14:16;;;;;;;12.57;7.45;;;;;;;;;;4992121;28;20120;-71
2023/01/30 00:16:42;;;;;;;13.68;7.40;;;;;;;;;;4992619;28;20057;-72
2023/01/30 00:19:08;;;;;;;16.15;7.10;;;;;;;;;;4992587;28;20089;-73
2023/01/30 00:21:34;;;;;;;12.23;7.50;;;;;;;;;;4990955;28;20034;-73
2023/01/30 00:23:59;;;;;;;13.48;7.65;;;;;;;;;;4992176;28;20485;-72
2023/01/30 00:26:25;;;;;;;12.32;7.22;;;;;;;;;;4992930;28;20546;-72
2023/01/30 00:28:51;;;;;;;10.77;7.15;;;;;;;;;;4992222;28;20010;-73
2023/01/30 00:31:17;;;;;;;17.55;8.23;;;;;;;;;;4991039;28;20464;-73
2023/01/30 00:33:42;;;;;;;12.77;7.45;;;;;;;;;;4990753;28;20101;-73
2023/01/30 00:36:09;;;;;;;15.88;7.85;;;;;;;;;;4992200;28;20085;-73
2023/01/30 00:38:36;;;;;;;12.68;7.85;;;;;;;;;;4992176;28;20106;-72
2023/01/30 00:41:02;;;;;;;15.30;7.80;;;;;;;;;;4992467;28;20499;-72
2023/01/30 00:49:11;;;;;;;13.27;7.40;;;;;;;;;;4987979;28;20054;-72
2023/01/30 00:51:37;;;;;;;12.65;7.75;;;;;;;;;;4991186;28;20062;-73
2023/01/30 00:54:03;;;;;;;15.27;8.00;;;;;;;;;;4992358;28;20026;-74
2023/01/30 00:56:30;;;;;;;12.82;8.25;;;;;;;;;;4992793;28;20026;-73
2023/01/30 00:58:56;;;;;;;13.38;8.20;;;;;;;;;;4991940;28;20399;-73
2023/01/30 01:01:21;;;;;;;14.75;9.13;;;;;;;;;;4990612;28;20030;-73
2023/01/30 01:03:48;;;;;;;14.27;8.43;;;;;;;;;;4991798;28;20041;-73
2023/01/30 01:06:13;;;;;;;15.50;8.75;;;;;;;;;;4990151;28;20101;-73
2023/01/30 01:08:39;;;;;;;20.52;9.95;;;;;;;;;;4992317;28;20450;-72
2023/01/30 01:11:05;;;;;;;19.10;10.45;;;;;;;;;;4990990;28;20121;-72
2023/01/30 01:13:32;;;;;;;15.95;9.57;;;;;;;;;;4990158;28;20136;-72
2023/01/30 01:15:57;;;;;;;14.80;9.50;;;;;;;;;;4989182;28;20022;-73
2023/01/30 01:18:23;;;;;;;14.38;9.30;;;;;;;;;;5022399;28;20278;-73
2023/01/30 01:20:49;;;;;;;18.33;9.70;;;;;;;;;;4990706;28;20022;-72
2023/01/30 01:23:15;;;;;;;15.07;9.45;;;;;;;;;;4973871;28;20125;-73
2023/01/30 01:25:40;;;;;;;19.23;11.07;;;;;;;;;;4992059;28;20034;-73
2023/01/30 01:28:06;;;;;;;23.92;10.43;;;;;;;;;;4992041;28;20034;-73
2023/01/30 01:30:32;;;;;;;17.35;10.02;;;;;;;;;;4991690;28;20034;-73
2023/01/30 01:32:58;;;;;;;17.70;10.48;;;;;;;;;;4990321;28;20112;-73
2023/01/30 01:35:23;;;;;;;14.75;9.38;;;;;;;;;;4992096;28;20022;-72
2023/01/30 01:37:53;;;;;;;20.42;11.18;;;;;;;;;;4991091;28;20492;-72
2023/01/30 01:43:24;;;;;;;16.55;10.30;;;;;;;;;;4991298;28;20030;-72
2023/01/30 01:45:58;;;;;;;16.00;9.60;;;;;;;;;;4988091;28;20037;-72
2023/01/30 01:48:37;;;;;;;15.48;9.32;;;;;;;;;;4990419;28;20112;-72
2023/01/30 01:51:32;;;;;;;16.42;9.90;;;;;;;;;;4991798;28;20117;-73
2023/01/30 01:54:18;;;;;;;16.33;10.52;;;;;;;;;;4972343;28;20077;-72
2023/01/30 01:56:47;;;;;;;18.70;10.95;;;;;;;;;;4995970;28;20034;-72
2023/01/30 01:59:25;;;;;;;23.27;12.38;;;;;;;;;;4994312;28;20022;-73
2023/01/30 02:01:56;;;;;;;22.05;10.90;;;;;;;;;;4995662;28;20052;-73
2023/01/30 02:07:08;;;;;;;14.85;9.70;;;;;;;;;;4993750;28;20034;-73
2023/01/30 02:09:34;;;;;;;14.50;9.43;;;;;;;;;;4994414;28;20065;-72
2023/01/30 02:12:03;;;;;;;15.10;8.88;;;;;;;;;;5027132;28;20031;-73
2023/01/30 02:14:32;;;;;;;15.27;9.23;;;;;;;;;;4993737;28;20030;-73
2023/01/30 02:16:58;;;;;;;15.18;8.18;;;;;;;;;;4995316;28;20030;-73
2023/01/30 02:19:33;;;;;;;15.23;8.52;;;;;;;;;;4994181;28;20034;-73
2023/01/30 02:22:47;;;;;;;12.90;7.63;;;;;;;;;;4993468;28;20040;-73
2023/01/30 02:25:19;;;;;;;14.02;7.93;;;;;;;;;;4994118;28;20037;-73
2023/01/30 02:28:13;;;;;;;17.83;7.47;;;;;;;;;;4995178;28;20546;-73
2023/01/30 02:31:01;;;;;;;10.60;7.07;;;;;;;;;;4993884;28;20031;-73
2023/01/30 02:33:47;;;;;;;12.93;7.60;;;;;;;;;;4992217;28;20037;-73
2023/01/30 02:36:34;;;;;;;11.70;7.75;;;;;;;;;;4992168;28;20034;-72
2023/01/30 02:39:21;;;;;;;15.02;7.80;;;;;;;;;;4985779;28;20046;-72
2023/01/30 02:41:55;;;;;;;11.63;7.28;;;;;;;;;;4993668;28;20034;-72
2023/01/30 02:44:32;;;;;;;11.70;6.97;;;;;;;;;;4994246;28;20031;-72
2023/01/30 02:47:02;;;;;;;10.38;6.78;;;;;;;;;;4995045;28;20503;-73
2023/01/30 02:49:37;;;;;;;12.40;7.38;;;;;;;;;;4993962;28;20042;-73
2023/01/30 02:52:08;;;;;;;10.85;6.82;;;;;;;;;;4993877;28;20369;-73
2023/01/30 02:54:33;;;;;;;11.85;6.93;;;;;;;;;;4992395;28;20045;-73
2023/01/30 02:56:59;;;;;;;11.57;7.80;;;;;;;;;;4993523;28;20018;-73
2023/01/30 02:59:36;;;;;;;11.45;7.53;;;;;;;;;;5026309;28;20030;-73
2023/01/30 03:02:21;;;;;;;14.02;7.13;;;;;;;;;;4993747;28;20037;-73
2023/01/30 03:04:56;;;;;;;12.63;7.50;;;;;;;;;;4993258;28;20511;-73
2023/01/30 03:07:44;;;;;;;12.35;7.10;;;;;;;;;;5025984;28;20551;-73
2023/01/30 03:10:39;;;;;;;9.40;6.75;;;;;;;;;;4991825;28;20031;-72
2023/01/30 03:13:27;;;;;;;14.23;7.40;;;;;;;;;;4988770;28;20081;-72
2023/01/30 03:16:08;;;;;;;13.55;7.80;;;;;;;;;;5027642;28;20034;-71
2023/01/30 03:18:35;;;;;;;18.73;8.15;;;;;;;;;;4996168;28;20424;-72
2023/01/30 03:21:05;;;;;;;19.88;9.50;;;;;;;;;;4994320;28;20027;-72
2023/01/30 03:23:31;;;;;;;16.65;10.23;;;;;;;;;;4993951;28;20038;-72
2023/01/30 03:25:58;;;;;;;15.20;9.85;;;;;;;;;;4993582;28;20026;-71
2023/01/30 03:28:25;;;;;;;15.18;9.70;;;;;;;;;;4992459;28;20081;-72
2023/01/30 03:30:51;;;;;;;21.52;13.40;;;;;;;;;;4992259;28;20030;-72
2023/01/30 03:33:16;;;;;;;18.83;10.75;;;;;;;;;;4991753;28;20072;-72
2023/01/30 03:35:46;;;;;;;27.85;9.77;;;;;;;;;;4992458;28;20085;-72
2023/01/30 03:38:13;;;;;;;16.13;8.45;;;;;;;;;;4992292;28;20781;-72
2023/01/30 03:40:39;;;;;;;12.95;7.00;;;;;;;;;;4992471;28;20030;-72
2023/01/30 03:43:05;;;;;;;15.23;7.32;;;;;;;;;;4991465;28;20509;-72
2023/01/30 03:45:31;;;;;;;12.02;6.93;;;;;;;;;;4990509;28;20385;-72
2023/01/30 03:47:57;;;;;;;10.85;7.32;;;;;;;;;;4976015;28;20037;-72
2023/01/30 03:50:23;;;;;;;16.27;8.30;;;;;;;;;;4992568;28;20042;-72
2023/01/30 03:52:49;;;;;;;29.45;9.30;;;;;;;;;;4992339;28;20518;-72
2023/01/30 03:55:18;;;;;;;22.23;9.63;;;;;;;;;;4973284;28;20050;-72
2023/01/30 03:57:44;;;;;;;18.60;8.48;;;;;;;;;;4989065;28;20030;-73
2023/01/30 04:00:10;;;;;;;19.42;8.40;;;;;;;;;;4992282;28;20049;-72
2023/01/30 04:02:42;;;;;;;12.50;7.53;;;;;;;;;;4993527;28;20104;-72
2023/01/30 04:05:08;;;;;;;14.77;7.82;;;;;;;;;;4993639;28;20041;-72
2023/01/30 04:07:35;;;;;;;17.02;8.73;;;;;;;;;;4992322;28;20026;-72
2023/01/30 04:10:00;;;;;;;16.05;8.35;;;;;;;;;;4992068;28;20044;-72
2023/01/30 04:12:26;;;;;;;17.17;8.82;;;;;;;;;;4992074;28;20030;-72
2023/01/30 04:14:55;;;;;;;20.38;8.25;;;;;;;;;;4976726;28;20066;-73
2023/01/30 04:17:39;;;;;;;;;;;;;;;;;;4993245;28;20056;-72
2023/01/30 04:20:33;;;;;;;17.63;6.97;;;;;;;;;;4980685;28;20372;-72
2023/01/30 04:23:00;;;;;;;17.27;8.38;;;;;;;;;;4988963;28;20035;-73
2023/01/30 04:25:26;;;;;;;17.75;8.57;;;;;;;;;;5007726;28;20022;-72
2023/01/30 04:27:52;;;;;;;20.75;8.25;;;;;;;;;;4991458;28;20029;-72
2023/01/30 04:30:22;;;;;;;15.35;8.30;;;;;;;;;;4988344;28;20488;-72
2023/01/30 04:32:52;;;;;;;16.55;8.32;;;;;;;;;;4991113;28;20030;-71
2023/01/30 04:35:18;;;;;;;19.52;8.80;;;;;;;;;;4991231;28;20085;-72
2023/01/30 04:37:44;;;;;;;19.25;8.35;;;;;;;;;;4991543;28;20030;-72
2023/01/30 04:40:14;;;;;;;18.98;7.38;;;;;;;;;;4989501;28;20057;-73
2023/01/30 04:42:40;;;;;;;20.05;8.57;;;;;;;;;;4991165;28;20116;-71
2023/01/30 04:45:24;;;;;;;19.67;9.48;;;;;;;;;;4992955;28;20131;-73
2023/01/30 04:47:51;;;;;;;28.17;10.05;;;;;;;;;;4989145;28;20053;-74
2023/01/30 04:50:17;;;;;;;16.55;8.18;;;;;;;;;;4990900;28;20096;-73
2023/01/30 04:52:42;;;;;;;18.45;8.48;;;;;;;;;;4976737;28;20049;-73
2023/01/30 04:55:09;;;;;;;24.40;8.95;;;;;;;;;;4991053;28;20033;-73
2023/01/30 04:57:35;;;;;;;25.88;9.93;;;;;;;;;;5023802;28;20034;-73
2023/01/30 05:00:01;;;;;;;30.17;9.52;;;;;;;;;;4990821;28;20387;-72
2023/01/30 05:02:26;;;;;;;23.50;9.07;;;;;;;;;;4990394;28;20536;-72
2023/01/30 05:04:52;;;;;;;23.55;8.75;;;;;;;;;;4991766;28;20036;-73
2023/01/30 05:07:18;;;;;;;20.35;9.93;;;;;;;;;;4991087;28;20030;-73
2023/01/30 05:09:43;;;;;;;19.75;8.95;;;;;;;;;;4992264;28;20041;-73
2023/01/30 05:12:09;;;;;;;21.48;8.38;;;;;;;;;;4992145;28;20085;-73
2023/01/30 05:14:35;;;;;;;27.40;9.85;;;;;;;;;;4991789;28;20049;-73
2023/01/30 05:17:00;;;;;;;30.70;11.95;;;;;;;;;;4990048;28;20053;-72
2023/01/30 05:19:26;;;;;;;30.88;10.65;;;;;;;;;;4989578;28;20037;-73
2023/01/30 05:21:52;;;;;;;18.13;9.23;;;;;;;;;;4991355;28;20041;-73
2023/01/30 05:24:17;;;;;;;23.23;9.00;;;;;;;;;;4990435;28;20030;-73
2023/01/30 05:26:43;;;;;;;19.15;8.13;;;;;;;;;;4989556;28;20069;-73
2023/01/30 05:29:09;;;;;;;18.17;8.73;;;;;;;;;;4991134;28;20022;-73
2023/01/30 05:31:34;;;;;;;20.67;8.00;;;;;;;;;;4991427;28;20037;-74
2023/01/30 05:34:00;;;;;;;22.25;10.07;;;;;;;;;;4990655;28;20073;-74
2023/01/30 05:36:26;;;;;;;24.73;8.82;;;;;;;;;;4991408;28;20472;-73
2023/01/30 05:38:51;;;;;;;17.75;8.82;;;;;;;;;;4990462;28;20125;-73
2023/01/30 05:41:17;;;;;;;21.42;9.52;;;;;;;;;;4991083;28;20034;-73
2023/01/30 05:43:47;;;;;;;27.63;8.50;;;;;;;;;;4990268;28;20118;-72
2023/01/30 05:46:13;;;;;;;17.13;8.80;;;;;;;;;;4992207;28;20081;-72
2023/01/30 05:48:38;;;;;;;18.50;8.60;;;;;;;;;;4991865;28;20026;-72
2023/01/30 05:51:04;;;;;;;14.98;8.70;;;;;;;;;;4991815;28;20101;-73
2023/01/30 05:53:36;;;;;;;19.65;8.60;;;;;;;;;;4990380;28;20026;-73
2023/01/30 05:56:04;;;;;;;16.65;7.88;;;;;;;;;;4989913;28;20092;-73
2023/01/30 05:58:31;;;;;;;23.85;8.85;;;;;;;;;;4985330;28;20023;-73
2023/01/30 06:01:05;;;;;;;18.63;9.77;;;;;;;;;;4991156;28;20117;-75
2023/01/30 06:03:31;;;;;;;23.67;9.82;;;;;;;;;;4993644;28;20040;-77
2023/01/30 06:05:57;;;;;;;26.05;10.43;;;;;;;;;;4991363;28;20407;-76
2023/01/30 06:08:23;;;;;;;17.92;9.88;;;;;;;;;;4989739;28;20048;-76
2023/01/30 06:10:49;;;;;;;27.88;10.88;;;;;;;;;;4990238;28;20029;-76
2023/01/30 06:13:15;;;;;;;21.90;9.98;;;;;;;;;;4991342;28;20026;-77
2023/01/30 06:15:40;;;;;;;35.03;11.20;;;;;;;;;;4990028;28;20065;-76
2023/01/30 06:18:07;;;;;;;26.35;10.48;;;;;;;;;;4990576;28;20054;-76
2023/01/30 06:20:33;;;;;;;33.05;11.43;;;;;;;;;;4989340;28;20140;-76
2023/01/30 06:22:59;;;;;;;36.90;12.25;;;;;;;;;;4988222;28;20034;-76
2023/01/30 06:25:26;;;;;;;32.80;11.60;;;;;;;;;;4989653;28;20022;-76
2023/01/30 06:27:51;;;;;;;22.80;10.00;;;;;;;;;;4990954;28;20057;-76
2023/01/30 06:30:17;;;;;;;18.73;9.50;;;;;;;;;;4990430;28;20026;-76
2023/01/30 06:32:43;;;;;;;20.90;8.85;;;;;;;;;;4990315;28;20049;-75
2023/01/30 06:35:09;;;;;;;35.35;11.20;;;;;;;;;;4989541;28;20026;-75
2023/01/30 06:37:34;;;;;;;27.85;9.45;;;;;;;;;;4990881;28;20041;-76
2023/01/30 06:40:00;;;;;;;26.35;10.02;;;;;;;;;;4991267;28;20018;-75
2023/01/30 06:42:26;;;;;;;21.92;8.77;;;;;;;;;;4992829;28;20038;-74
2023/01/30 06:44:52;;;;;;;19.15;9.90;;;;;;;;;;4994119;28;20129;-74
2023/01/30 06:47:18;;;;;;;15.50;9.13;;;;;;;;;;4994320;28;20030;-75
2023/01/30 06:49:44;;;;;;;20.35;9.30;;;;;;;;;;4993192;28;20506;-74
2023/01/30 06:52:09;;;;;;;23.42;10.02;;;;;;;;;;5026171;28;20522;-76
2023/01/30 06:54:35;;;;;;;19.35;9.55;;;;;;;;;;4994804;28;20392;-74
2023/01/30 06:57:01;;;;;;;27.23;9.73;;;;;;;;;;4992836;28;20053;-76
2023/01/30 06:59:26;;;;;;;18.52;8.57;;;;;;;;;;4994168;28;20543;-75
2023/01/30 07:01:52;;;;;;;23.73;8.50;;;;;;;;;;4994305;28;20038;-74
2023/01/30 07:04:18;;;;;;;22.85;8.85;;;;;;;;;;4992665;28;20396;-75
2023/01/30 07:06:45;;;;;;;13.68;8.40;;;;;;;;;;4992029;28;20030;-76
2023/01/30 07:09:12;;;;;;;18.00;9.70;;;;;;;;;;4992396;28;20015;-76
2023/01/30 07:11:37;;;;;;;19.10;8.43;;;;;;;;;;4994142;28;20038;-76
2023/01/30 07:14:03;;;;;;;14.85;8.30;;;;;;;;;;4993546;28;20112;-76
2023/01/30 07:16:29;;;;;;;17.63;8.77;;;;;;;;;;4994056;28;20041;-77
2023/01/30 07:18:58;;;;;;;17.00;9.27;;;;;;;;;;4991673;28;20030;-77
2023/01/30 07:21:26;;;;;;;13.98;7.72;;;;;;;;;;4994337;28;20034;-77
2023/01/30 07:23:52;;;;;;;18.20;8.50;;;;;;;;;;4993787;28;20053;-76
2023/01/30 07:26:18;;;;;;;25.58;9.23;;;;;;;;;;4993737;28;20151;-75
2023/01/30 07:28:45;;;;;;;16.10;8.23;;;;;;;;;;4993657;28;20026;-75
2023/01/30 07:31:12;;;;;;;14.23;7.88;;;;;;;;;;4993623;28;20407;-76
2023/01/30 07:33:38;;;;;;;13.20;7.45;;;;;;;;;;5025145;28;20376;-74
2023/01/30 07:36:03;;;;;;;19.23;9.80;;;;;;;;;;4993763;28;20094;-74
2023/01/30 07:38:29;;;;;;;15.52;8.00;;;;;;;;;;4993548;28;20058;-75
2023/01/30 07:40:57;;;;;;;19.52;8.10;;;;;;;;;;4993688;28;20046;-76
2023/01/30 07:43:23;;;;;;;23.48;9.55;;;;;;;;;;4993091;28;20542;-76
2023/01/30 07:45:48;;;;;;;20.65;8.07;;;;;;;;;;5024835;28;20026;-76
2023/01/30 07:48:17;;;;;;;18.38;8.30;;;;;;;;;;4991617;28;20023;-76
2023/01/30 07:50:43;;;;;;;19.20;9.90;;;;;;;;;;4991676;28;20137;-75
2023/01/30 07:53:13;;;;;;;18.08;8.13;;;;;;;;;;4992971;28;20022;-75
2023/01/30 07:55:39;;;;;;;19.85;9.35;;;;;;;;;;4993269;28;20479;-77
2023/01/30 07:58:05;;;;;;;16.02;8.82;;;;;;;;;;4994135;28;20087;-77
2023/01/30 08:00:33;;;;;;;15.98;9.02;;;;;;;;;;4994991;28;20066;-77
2023/01/30 08:02:58;;;;;;;16.77;7.75;;;;;;;;;;4995782;28;20097;-77
2023/01/30 08:05:25;;;;;;;16.13;8.00;;;;;;;;;;4993628;28;20413;-77
2023/01/30 08:07:51;;;;;;;17.70;8.32;;;;;;;;;;4974212;28;20433;-75
2023/01/30 08:10:17;;;;;;;18.30;7.85;;;;;;;;;;4973504;28;20069;-78
2023/01/30 08:12:43;;;;;;;13.18;7.35;;;;;;;;;;4972023;28;20416;-76
2023/01/30 08:15:09;;;;;;;14.60;8.60;;;;;;;;;;4973768;28;20485;-76
2023/01/30 08:17:35;;;;;;;15.00;8.30;;;;;;;;;;4973889;28;20030;-76
2023/01/30 08:20:02;;;;;;;17.45;8.57;;;;;;;;;;4973383;28;20030;-76
2023/01/30 08:22:28;;;;;;;14.35;8.40;;;;;;;;;;4973161;28;20536;-75
2023/01/30 08:24:54;;;;;;;14.68;7.22;;;;;;;;;;4972701;28;20057;-77
2023/01/30 08:27:19;;;;;;;13.77;7.93;;;;;;;;;;4973127;28;20474;-75
2023/01/30 08:29:45;;;;;;;13.82;7.28;;;;;;;;;;4973390;28;20066;-77
2023/01/30 08:32:11;;;;;;;11.27;6.85;;;;;;;;;;4973993;28;20037;-77
2023/01/30 08:34:38;;;;;;;22.77;8.93;;;;;;;;;;4973130;28;20118;-76
2023/01/30 08:37:04;;;;;;;14.98;8.32;;;;;;;;;;4973233;28;20030;-77
2023/01/30 08:39:30;;;;;;;13.85;8.48;;;;;;;;;;4973044;28;20035;-76
2023/01/30 08:41:55;;;;;;;17.23;9.40;;;;;;;;;;4973698;28;20218;-77
2023/01/30 08:44:21;;;;;;;17.77;9.57;;;;;;;;;;4973362;28;20459;-76
2023/01/30 08:46:47;;;;;;;22.13;10.93;;;;;;;;;;4973474;28;20022;-76
2023/01/30 08:49:13;;;;;;;22.60;11.48;;;;;;;;;;4975131;28;20387;-75
2023/01/30 08:51:38;;;;;;;16.95;8.73;;;;;;;;;;4992576;28;20022;-75
2023/01/30 08:54:08;;;;;;;13.60;8.20;;;;;;;;;;4992144;28;20037;-76
2023/01/30 08:56:35;;;;;;;11.23;7.53;;;;;;;;;;4992740;28;20049;-77
2023/01/30 08:59:00;;;;;;;11.75;6.75;;;;;;;;;;4991864;28;20550;-75
2023/01/30 09:01:26;;;;;;;13.32;7.85;;;;;;;;;;4992016;28;20133;-78
2023/01/30 09:03:53;;;;;;;12.13;7.78;;;;;;;;;;4990898;28;20439;-78
2023/01/30 09:06:18;;;;;;;13.48;7.38;;;;;;;;;;4992358;28;20038;-77
2023/01/30 09:08:44;;;;;;;14.55;6.53;;;;;;;;;;4991972;28;20018;-76
2023/01/30 09:11:11;;;;;;;14.57;7.10;;;;;;;;;;4990856;28;20039;-75
2023/01/30 09:13:42;;;;;;;21.75;7.47;;;;;;;;;;4991921;28;20038;-74
2023/01/30 09:16:09;;;;;;;15.10;8.48;;;;;;;;;;4991787;28;20053;-76
2023/01/30 09:18:40;;;;;;;11.50;7.20;;;;;;;;;;4991676;28;20030;-77
2023/01/30 09:21:06;;;;;;;11.52;6.80;;;;;;;;;;4991990;28;20480;-76
2023/01/30 09:23:32;;;;;;;13.05;7.50;;;;;;;;;;4991708;28;20030;-76
2023/01/30 09:25:59;;;;;;;10.38;6.63;;;;;;;;;;4992194;28;20461;-78
2023/01/30 09:28:25;;;;;;;7.53;4.63;;;;;;;;;;4990273;28;20031;-76
2023/01/30 09:30:51;;;;;;;17.52;7.22;;;;;;;;;;4992322;28;20038;-78
2023/01/30 09:33:19;;;;;;;11.73;7.13;;;;;;;;;;4992119;28;20026;-78
2023/01/30 09:35:48;;;;;;;14.38;6.65;;;;;;;;;;4995244;28;20037;-75
2023/01/30 09:38:16;;;;;;;9.43;6.65;;;;;;;;;;4994200;28;20101;-78
2023/01/30 09:41:01;;;;;;;14.02;6.10;;;;;;;;;;4990778;28;20035;-78
2023/01/30 09:43:27;;;;;;;11.55;6.70;;;;;;;;;;4991887;28;20050;-77
2023/01/30 09:46:28;;;;;;;10.70;5.78;;;;;;;;;;4990668;28;20040;-78
2023/01/30 09:49:21;;;;;;;11.00;6.55;;;;;;;;;;4992240;28;20034;-78
2023/01/30 09:52:03;;;;;;;9.17;6.07;;;;;;;;;;4983936;28;20092;-79
2023/01/30 09:54:33;;;;;;;13.85;7.20;;;;;;;;;;4991572;28;20035;-78
2023/01/30 09:57:18;;;;;;;10.75;6.70;;;;;;;;;;4992257;28;20038;-79
2023/01/30 09:59:57;;;;;;;19.58;10.90;;;;;;;;;;4990941;28;20396;-77
2023/01/30 10:02:49;;;;;;;14.02;7.20;;;;;;;;;;4990743;28;20448;-77
2023/01/30 10:05:14;;;;;;;10.20;6.70;;;;;;;;;;4992652;28;20053;-79
2023/01/30 10:07:55;;;;;;;15.93;6.70;;;;;;;;;;4991441;28;20380;-77
2023/01/30 10:10:41;;;;;;;11.43;6.57;;;;;;;;;;4991429;28;20073;-76
2023/01/30 10:13:44;;;;;;;11.60;6.78;;;;;;;;;;4991332;28;20038;-76
2023/01/30 10:16:18;;;;;;;11.00;6.03;;;;;;;;;;4991790;28;20061;-76
2023/01/30 10:19:07;;;;;;;9.38;6.30;;;;;;;;;;4993831;28;20034;-78
2023/01/30 10:21:47;;;;;;;14.68;7.13;;;;;;;;;;4994443;28;20061;-78
2023/01/30 10:24:39;;;;;;;14.48;7.20;;;;;;;;;;4992262;28;20031;-77
2023/01/30 10:27:11;;;;;;;12.65;6.82;;;;;;;;;;4994184;28;20057;-75
2023/01/30 10:29:39;;;;;;;12.53;6.87;;;;;;;;;;4994948;28;20041;-77
2023/01/30 10:32:31;;;;;;;10.65;6.65;;;;;;;;;;4994909;28;20022;-78
2023/01/30 10:35:21;;;;;;;11.82;7.40;;;;;;;;;;4994960;28;20116;-77
2023/01/30 10:38:11;;;;;;;19.60;7.03;;;;;;;;;;4993284;28;20121;-77
2023/01/30 10:40:42;;;;;;;10.18;6.63;;;;;;;;;;4994249;28;20049;-78
2023/01/30 10:43:11;;;;;;;13.02;7.32;;;;;;;;;;4993598;28;20370;-76
2023/01/30 10:45:50;;;;;;;11.77;6.38;;;;;;;;;;4993533;28;20026;-78
2023/01/30 10:48:48;;;;;;;13.27;7.65;;;;;;;;;;4993434;28;20033;-78
2023/01/30 10:51:32;;;;;;;14.98;8.95;;;;;;;;;;4973191;28;20084;-76
2023/01/30 10:54:16;;;;;;;11.80;7.32;;;;;;;;;;4974841;28;20096;-77
2023/01/30 10:57:02;;;;;;;12.73;7.43;;;;;;;;;;4986875;28;20141;-76
2023/01/30 11:00:09;;;;;;;11.07;6.38;;;;;;;;;;4994475;28;20088;-77
2023/01/30 11:02:45;;;;;;;12.15;7.00;;;;;;;;;;4975233;28;20393;-78
2023/01/30 11:05:20;;;;;;;9.48;6.53;;;;;;;;;;4989355;28;20049;-77
2023/01/30 11:07:47;;;;;;;12.75;7.18;;;;;;;;;;4973809;28;20137;-77
2023/01/30 11:10:31;;;;;;;11.13;6.82;;;;;;;;;;4974874;28;20077;-77
2023/01/30 11:13:13;;;;;;;14.13;7.60;;;;;;;;;;4991283;28;20087;-77
2023/01/30 11:15:40;;;;;;;16.88;8.25;;;;;;;;;;4993715;28;20546;-77
2023/01/30 11:18:06;;;;;;;16.90;8.30;;;;;;;;;;4992325;28;20404;-77
2023/01/30 11:20:39;;;;;;;14.93;7.75;;;;;;;;;;4994786;28;20062;-77
2023/01/30 11:23:21;;;;;;;11.07;7.25;;;;;;;;;;4994446;28;20626;-77
2023/01/30 11:25:49;;;;;;;10.85;6.43;;;;;;;;;;4994116;28;20060;-77
2023/01/30 11:28:18;;;;;;;15.95;7.30;;;;;;;;;;4992169;28;20022;-78
2023/01/30 11:30:57;;;;;;;14.15;7.68;;;;;;;;;;4975039;28;20070;-77
2023/01/30 11:33:33;;;;;;;11.10;6.78;;;;;;;;;;4994444;28;20045;-76
2023/01/30 11:36:05;;;;;;;12.07;7.07;;;;;;;;;;5025144;28;20052;-76
2023/01/30 11:38:33;;;;;;;15.48;7.70;;;;;;;;;;4993658;28;20046;-76
2023/01/30 11:41:06;;;;;;;11.25;6.97;;;;;;;;;;4992604;28;20483;-77
2023/01/30 11:43:33;;;;;;;;;;;;;;;;;;4995257;28;20518;-78
2023/01/30 11:46:00;;;;;;;12.20;6.65;;;;;;;;;;4992588;28;20389;-75
2023/01/30 11:48:29;;;;;;;13.98;7.28;;;;;;;;;;4993734;28;20100;-77
2023/01/30 11:51:01;;;;;;;14.63;7.70;;;;;;;;;;4993669;28;20484;-77
2023/01/30 11:53:49;;;;;;;13.25;7.78;;;;;;;;;;4993096;28;20133;-76
2023/01/30 11:56:31;;;;;;;12.70;7.82;;;;;;;;;;4993294;28;20065;-78
2023/01/30 11:59:00;;;;;;;14.07;8.32;;;;;;;;;;4992301;28;20078;-78
2023/01/30 12:01:28;;;;;;;15.52;7.97;;;;;;;;;;4993541;28;20388;-77
2023/01/30 12:03:56;;;;;;;15.05;8.00;;;;;;;;;;4993002;28;20421;-76
2023/01/30 12:06:24;;;;;;;10.48;6.60;;;;;;;;;;4993264;28;20034;-76
2023/01/30 12:08:52;;;;;;;17.55;8.55;;;;;;;;;;4991680;28;20138;-76
2023/01/30 12:11:26;;;;;;;14.45;7.53;;;;;;;;;;4993295;28;20133;-77
2023/01/30 12:14:25;;;;;;;20.73;8.48;;;;;;;;;;4991936;28;20049;-77
2023/01/30 12:17:20;;;;;;;21.42;9.95;;;;;;;;;;4981466;28;20066;-77
2023/01/30 12:20:11;;;;;;;16.45;8.45;;;;;;;;;;4988929;28;20104;-75
2023/01/30 12:23:02;;;;;;;12.57;7.38;;;;;;;;;;4973542;28;20437;-75
2023/01/30 12:25:35;;;;;;;11.73;7.25;;;;;;;;;;4973966;28;20041;-77
2023/01/30 12:28:09;;;;;;;16.52;8.65;;;;;;;;;;4974269;28;20128;-75
2023/01/30 12:30:38;;;;;;;16.13;8.85;;;;;;;;;;4972804;28;20054;-77
2023/01/30 12:33:11;;;;;;;15.40;7.65;;;;;;;;;;4973092;28;20035;-74
2023/01/30 12:36:00;;;;;;;11.95;7.50;;;;;;;;;;4973520;28;20039;-75
2023/01/30 12:38:38;;;;;;;10.52;6.93;;;;;;;;;;4973510;28;20107;-73
2023/01/30 12:41:33;;;;;;;12.80;7.20;;;;;;;;;;4973046;28;20061;-75
2023/01/30 12:44:17;;;;;;;14.63;8.50;;;;;;;;;;4973256;28;20035;-75
2023/01/30 12:47:02;;;;;;;11.88;7.70;;;;;;;;;;4990584;28;20114;-76
2023/01/30 12:49:41;;;;;;;16.95;8.50;;;;;;;;;;4992334;28;20066;-75
2023/01/30 12:52:38;;;;;;;14.73;8.35;;;;;;;;;;4992632;28;20068;-74
2023/01/30 12:55:41;;;;;;;13.52;8.00;;;;;;;;;;4993414;28;20038;-76
2023/01/30 12:58:19;;;;;;;17.35;8.57;;;;;;;;;;4995287;28;20030;-73
2023/01/30 13:00:54;;;;;;;14.20;8.60;;;;;;;;;;4994851;28;20038;-75
2023/01/30 13:03:28;;;;;;;25.65;9.18;;;;;;;;;;4994656;28;20042;-74
2023/01/30 13:06:17;;;;;;;14.57;7.82;;;;;;;;;;4993916;28;20045;-73
2023/01/30 13:09:20;;;;;;;20.58;9.02;;;;;;;;;;4992529;28;20037;-74
2023/01/30 13:12:09;;;;;;;12.48;7.57;;;;;;;;;;4992599;28;20030;-75
2023/01/30 13:15:10;;;;;;;14.48;8.07;;;;;;;;;;4992423;28;20030;-75
2023/01/30 13:17:48;;;;;;;13.15;8.90;;;;;;;;;;4991497;28;20113;-76
2023/01/30 13:20:47;;;;;;;13.70;8.93;;;;;;;;;;4992609;28;20080;-75
2023/01/30 13:23:57;;;;;;;13.77;8.45;;;;;;;;;;4992080;28;20042;-75
2023/01/30 13:26:30;;;;;;;15.07;8.63;;;;;;;;;;4991822;28;20054;-76
2023/01/30 13:29:01;;;;;;;12.55;7.63;;;;;;;;;;4992224;28;20108;-75
2023/01/30 13:31:32;;;;;;;22.80;9.68;;;;;;;;;;4991515;28;20038;-75
2023/01/30 13:34:23;;;;;;;13.48;8.30;;;;;;;;;;4992662;28;20080;-76
2023/01/30 13:37:00;;;;;;;22.38;8.63;;;;;;;;;;4991874;28;20034;-75
2023/01/30 13:39:47;;;;;;;19.40;7.80;;;;;;;;;;4991756;28;20066;-75
2023/01/30 13:42:27;;;;;;;12.52;7.95;;;;;;;;;;4990974;28;20034;-77
2023/01/30 13:44:56;;;;;;;15.30;8.77;;;;;;;;;;4989206;28;20027;-76
2023/01/30 13:47:51;;;;;;;26.35;8.55;;;;;;;;;;4991012;28;20026;-74
2023/01/30 13:50:40;;;;;;;18.08;8.23;;;;;;;;;;4991115;28;20050;-77
2023/01/30 13:53:25;;;;;;;28.38;9.40;;;;;;;;;;4993405;28;20073;-77
2023/01/30 13:56:04;;;;;;;10.95;7.18;;;;;;;;;;4994920;28;20054;-76
2023/01/30 13:58:45;;;;;;;12.80;7.72;;;;;;;;;;4993559;28;20034;-76
2023/01/30 14:01:12;;;;;;;12.45;7.80;;;;;;;;;;4994911;28;20041;-76
2023/01/30 14:03:39;;;;;;;12.15;7.97;;;;;;;;;;4993592;28;20043;-76
2023/01/30 14:06:10;;;;;;;14.43;8.07;;;;;;;;;;4990816;28;20027;-76
2023/01/30 14:08:59;;;;;;;16.45;7.57;;;;;;;;;;4991628;28;20042;-78
2023/01/30 14:11:46;;;;;;;12.57;7.70;;;;;;;;;;4994594;28;20109;-77
2023/01/30 14:14:14;;;;;;;14.48;8.18;;;;;;;;;;4994606;28;20050;-76
2023/01/30 14:16:46;;;;;;;19.70;8.27;;;;;;;;;;4994683;28;20113;-77
2023/01/30 14:19:32;;;;;;;15.07;8.48;;;;;;;;;;4993592;28;20500;-79
2023/01/30 14:22:02;;;;;;;20.10;8.20;;;;;;;;;;4994168;28;20136;-77
2023/01/30 14:24:30;;;;;;;13.90;8.13;;;;;;;;;;4994312;28;20038;-77
2023/01/30 14:27:03;;;;;;;19.38;9.63;;;;;;;;;;4994188;28;20037;-77
2023/01/30 14:29:41;;;;;;;20.55;9.13;;;;;;;;;;4995622;28;20030;-76
2023/01/30 14:32:13;;;;;;;14.95;8.18;;;;;;;;;;4994791;28;20035;-76
2023/01/30 14:34:55;;;;;;;17.10;7.88;;;;;;;;;;4995347;28;20057;-76
2023/01/30 14:37:37;;;;;;;17.40;7.97;;;;;;;;;;4995017;28;20053;-75
2023/01/30 14:40:26;;;;;;;17.55;8.45;;;;;;;;;;4994752;28;20034;-76
2023/01/30 14:43:10;;;;;;;14.90;8.18;;;;;;;;;;4992910;28;20552;-77
2023/01/30 14:45:51;;;;;;;14.05;8.25;;;;;;;;;;4994995;28;20105;-78
2023/01/30 14:48:36;;;;;;;12.55;8.27;;;;;;;;;;4993059;28;20077;-75
2023/01/30 14:51:34;;;;;;;14.25;8.23;;;;;;;;;;4994963;28;20048;-74
2023/01/30 14:54:06;;;;;;;14.45;8.25;;;;;;;;;;4967859;28;20042;-77
2023/01/30 14:57:01;;;;;;;14.27;8.38;;;;;;;;;;4994806;28;20033;-77
2023/01/30 14:59:33;;;;;;;15.50;9.40;;;;;;;;;;4993323;28;20085;-77
2023/01/30 15:02:08;;;;;;;18.40;9.80;;;;;;;;;;4994135;28;20049;-77
2023/01/30 15:05:02;;;;;;;14.63;8.38;;;;;;;;;;4994706;28;20105;-77
2023/01/30 15:08:09;;;;;;;15.43;9.63;;;;;;;;;;4995018;28;20038;-78
2023/01/30 15:11:08;;;;;;;14.38;8.25;;;;;;;;;;5009671;28;20510;-78
2023/01/30 15:13:58;;;;;;;14.73;8.57;;;;;;;;;;4988938;28;20570;-77